createdAt,value
2022-11-17T00:04:24.098Z,11.5
2022-11-17T00:06:50.693Z,11.5
2022-11-17T00:09:17.320Z,11.5
2022-11-17T00:11:43.942Z,11.5
2022-11-17T00:14:10.565Z,11.5
2022-11-17T00:16:37.189Z,11.5
2022-11-17T00:19:03.805Z,11.5
2022-11-17T00:21:30.442Z,11.5
2022-11-17T00:23:55.564Z,11.5
2022-11-17T00:28:48.853Z,11.5
2022-11-17T00:31:15.466Z,11.4
2022-11-17T00:33:42.105Z,11.5
2022-11-17T00:36:08.676Z,11.5
2022-11-17T00:38:35.297Z,11.5
2022-11-17T00:41:01.921Z,11.4
2022-11-17T00:43:28.542Z,11.5
2022-11-17T00:45:55.238Z,11.4
2022-11-17T00:48:21.794Z,11.4
2022-11-17T00:53:15.040Z,11.4
2022-11-17T00:55:40.167Z,11.4
2022-11-17T00:58:06.786Z,11.4
2022-11-17T01:00:33.415Z,11.4
2022-11-17T01:03:00.064Z,11.4
2022-11-17T01:05:26.719Z,11.4
2022-11-17T01:07:53.416Z,11.4
2022-11-17T01:10:19.914Z,11.4
2022-11-17T01:12:46.529Z,11.4
2022-11-17T01:17:39.778Z,11.4
2022-11-17T01:20:06.428Z,11.4
2022-11-17T01:24:59.643Z,11.4
2022-11-17T01:27:24.783Z,11.4
2022-11-17T01:29:51.392Z,11.4
2022-11-17T01:32:18.017Z,11.4
2022-11-17T01:34:44.649Z,11.4
2022-11-17T01:37:11.336Z,11.4
2022-11-17T01:39:37.981Z,11.4
2022-11-17T01:42:04.518Z,11.4
2022-11-17T01:44:31.140Z,11.4
2022-11-17T01:46:57.768Z,11.4
2022-11-17T01:49:24.390Z,11.4
2022-11-17T01:51:51.010Z,11.4
2022-11-17T01:54:17.618Z,11.3
2022-11-17T01:56:44.255Z,11.4
2022-11-17T01:59:09.445Z,11.4
2022-11-17T02:01:35.997Z,11.4
2022-11-17T02:04:02.618Z,11.4
2022-11-17T02:06:29.260Z,11.4
2022-11-17T02:08:54.372Z,11.4
2022-11-17T02:11:19.510Z,11.3
2022-11-17T02:13:46.210Z,11.3
2022-11-17T02:16:12.756Z,11.3
2022-11-17T02:18:39.363Z,11.3
2022-11-17T02:21:06.060Z,11.3
2022-11-17T02:23:32.631Z,11.3
2022-11-17T02:25:59.254Z,11.3
2022-11-17T02:30:52.527Z,11.3
2022-11-17T02:33:19.185Z,11.3
2022-11-17T02:35:45.737Z,11.3
2022-11-17T02:38:12.410Z,11.3
2022-11-17T02:40:38.967Z,11.3
2022-11-17T02:43:04.108Z,11.3
2022-11-17T02:45:30.816Z,11.3
2022-11-17T02:47:57.364Z,11.3
2022-11-17T02:50:23.977Z,11.3
2022-11-17T02:55:17.214Z,11.3
2022-11-17T03:00:08.990Z,11.3
2022-11-17T03:02:34.190Z,11.2
2022-11-17T03:04:59.223Z,11.2
2022-11-17T03:07:25.859Z,11.2
2022-11-17T03:12:19.200Z,11.2
2022-11-17T03:14:45.803Z,11.3
2022-11-17T03:17:12.351Z,11.2
2022-11-17T03:19:38.958Z,11.2
2022-11-17T03:24:32.224Z,11.2
2022-11-17T03:26:58.918Z,11.2
2022-11-17T03:29:25.483Z,11.2
2022-11-17T03:31:52.092Z,11.2
2022-11-17T03:34:18.819Z,11.2
2022-11-17T03:36:43.841Z,11.2
2022-11-17T03:39:10.476Z,11.2
2022-11-17T03:44:03.714Z,11.2
2022-11-17T03:48:56.961Z,11.2
2022-11-17T03:51:23.575Z,11.2
2022-11-17T03:53:50.186Z,11.2
2022-11-17T03:56:16.849Z,11.2
2022-11-17T03:58:43.457Z,11.2
2022-11-17T04:01:10.070Z,11.2
2022-11-17T04:03:36.766Z,11.2
2022-11-17T04:08:29.946Z,11.2
2022-11-17T04:10:55.069Z,11.2
2022-11-17T04:13:21.784Z,11.2
2022-11-17T04:18:14.934Z,11.2
2022-11-17T04:20:41.561Z,11.2
2022-11-17T04:23:08.185Z,11.2
2022-11-17T04:25:34.799Z,11.2
2022-11-17T04:28:01.428Z,11.2
2022-11-17T04:30:28.226Z,11.2
2022-11-17T04:32:54.679Z,11.2
2022-11-17T04:35:21.422Z,11.2
2022-11-17T04:37:47.919Z,11.2
2022-11-17T04:40:14.551Z,11.2
2022-11-17T04:42:41.271Z,11.2
2022-11-17T04:45:06.297Z,11.2
2022-11-17T04:47:32.922Z,11.2
2022-11-17T04:49:59.666Z,11.2
2022-11-17T04:52:26.172Z,11.2
2022-11-17T04:57:19.412Z,11.2
2022-11-17T05:02:12.658Z,11.1
2022-11-17T05:04:39.282Z,11.2
2022-11-17T05:07:05.900Z,11.2
2022-11-17T05:09:32.628Z,11.1
2022-11-17T05:11:59.225Z,11.1
2022-11-17T05:14:25.776Z,11.1
2022-11-17T05:16:50.898Z,11.1
2022-11-17T05:21:44.161Z,11.1
2022-11-17T05:26:37.400Z,11.1
2022-11-17T05:29:04.021Z,11.1
2022-11-17T05:31:30.725Z,11.1
2022-11-17T05:33:57.256Z,11.1
2022-11-17T05:36:23.884Z,11.1
2022-11-17T05:38:50.502Z,11.1
2022-11-17T05:41:17.186Z,11.1
2022-11-17T05:46:10.384Z,11.1
2022-11-17T05:51:03.629Z,11.1
2022-11-17T05:53:28.755Z,11.1
2022-11-17T05:55:55.377Z,11.1
2022-11-17T05:58:22.010Z,11.1
2022-11-17T06:00:48.623Z,11.1
2022-11-17T06:03:15.395Z,11.1
2022-11-17T06:05:41.871Z,11.1
2022-11-17T06:10:35.122Z,11.1
2022-11-17T06:15:28.365Z,11.1
2022-11-17T06:17:54.985Z,11.1
2022-11-17T06:20:21.658Z,11.1
2022-11-17T06:22:48.236Z,11.1
2022-11-17T06:25:14.969Z,11.1
2022-11-17T06:27:41.480Z,11.1
2022-11-17T06:30:08.164Z,11.1
2022-11-17T06:34:59.856Z,11.1
2022-11-17T06:39:53.203Z,11.1
2022-11-17T06:42:19.738Z,11.1
2022-11-17T06:44:46.347Z,11.1
2022-11-17T06:47:13.058Z,11.1
2022-11-17T06:49:39.596Z,11.1
2022-11-17T06:52:06.221Z,11.1
2022-11-17T06:54:32.865Z,11.1
2022-11-17T06:59:26.088Z,11.1
2022-11-17T07:04:19.327Z,11.1
2022-11-17T07:06:44.520Z,11.1
2022-11-17T07:09:11.108Z,11.1
2022-11-17T07:11:37.727Z,11.1
2022-11-17T07:16:30.963Z,11.2
2022-11-17T07:23:50.823Z,11.2
2022-11-17T07:28:44.139Z,11.2
2022-11-17T07:31:10.804Z,11.3
2022-11-17T07:33:37.449Z,11.3
2022-11-17T07:36:03.936Z,11.3
2022-11-17T07:38:29.068Z,11.3
2022-11-17T07:40:55.696Z,11.4
2022-11-17T07:43:22.347Z,11.4
2022-11-17T07:58:02.087Z,11.5
2022-11-17T08:02:55.307Z,11.4
2022-11-17T08:05:22.104Z,11.4
2022-11-17T08:07:48.571Z,11.4
2022-11-17T08:12:41.877Z,11.4
2022-11-17T08:17:33.538Z,11.3
2022-11-17T08:20:00.230Z,11.3
2022-11-17T08:22:26.787Z,11.3
2022-11-17T08:27:20.057Z,11.3
2022-11-17T08:29:46.656Z,11.2
2022-11-17T08:32:13.278Z,11.2
2022-11-17T08:37:06.534Z,11.2
2022-11-17T08:41:59.782Z,11.2
2022-11-17T08:44:26.393Z,11.2
2022-11-17T08:46:53.025Z,11.2
2022-11-17T08:49:19.642Z,11.2
2022-11-17T08:51:46.280Z,11.2
2022-11-17T08:54:11.395Z,11.2
2022-11-17T08:56:38.008Z,11.2
2022-11-17T08:59:04.643Z,11.2
2022-11-17T09:01:31.260Z,11.2
2022-11-17T09:08:51.255Z,11.2
2022-11-17T09:11:17.737Z,11.1
2022-11-17T09:13:44.370Z,11.1
2022-11-17T09:16:11.000Z,11.1
2022-11-17T09:18:37.643Z,11.1
2022-11-17T09:21:04.244Z,11.1
2022-11-17T09:23:30.862Z,11.1
2022-11-17T09:25:57.501Z,11.1
2022-11-17T09:28:22.615Z,11.1
2022-11-17T09:30:49.333Z,11.1
2022-11-17T09:33:16.019Z,11.1
2022-11-17T09:35:42.470Z,11.1
2022-11-17T09:38:07.616Z,11.1
2022-11-17T09:40:34.245Z,11.1
2022-11-17T09:43:00.863Z,11.1
2022-11-17T09:45:27.478Z,11.1
2022-11-17T09:47:54.116Z,11.1
2022-11-17T09:50:20.739Z,11.1
2022-11-17T09:52:47.354Z,11.1
2022-11-17T09:57:40.816Z,11.1
2022-11-17T10:00:05.736Z,11.1
2022-11-17T10:02:32.354Z,11.1
2022-11-17T10:04:57.500Z,11.1
2022-11-17T10:07:24.101Z,11.1
2022-11-17T10:12:17.350Z,11.1
2022-11-17T10:14:44.022Z,11.1
2022-11-17T10:22:03.832Z,11.1
2022-11-17T10:24:30.472Z,11.1
2022-11-17T10:26:57.085Z,11.1
2022-11-17T10:29:23.767Z,11.1
2022-11-17T10:31:50.408Z,11.1
2022-11-17T10:34:15.472Z,11.1
2022-11-17T10:36:40.592Z,11.1
2022-11-17T10:39:07.202Z,11.1
2022-11-17T10:41:33.846Z,11.1
2022-11-17T10:44:00.464Z,11.1
2022-11-17T10:46:27.112Z,11.1
2022-11-17T10:48:53.742Z,11.1
2022-11-17T10:51:20.328Z,11.1
2022-11-17T10:53:46.961Z,11.1
2022-11-17T10:56:13.574Z,11.1
2022-11-17T10:58:40.209Z,11.1
2022-11-17T11:01:05.324Z,11.1
2022-11-17T11:03:30.454Z,11.1
2022-11-17T11:05:57.083Z,11.1
2022-11-17T11:10:50.316Z,11.1
2022-11-17T11:13:16.973Z,11.1
2022-11-17T11:15:43.577Z,11.1
2022-11-17T11:18:10.204Z,11.1
2022-11-17T11:20:36.823Z,11.1
2022-11-17T11:25:30.071Z,11.1
2022-11-17T11:32:49.936Z,11.4
2022-11-17T11:35:16.559Z,11.4
2022-11-17T11:37:41.698Z,11.5
2022-11-17T11:40:06.812Z,11.6
2022-11-17T11:42:33.463Z,11.6
2022-11-17T11:45:00.091Z,11.6
2022-11-17T11:47:26.690Z,11.6
2022-11-17T11:49:53.322Z,11.6
2022-11-17T11:52:19.932Z,11.6
2022-11-17T11:54:46.546Z,11.6
2022-11-17T11:57:13.176Z,11.5
2022-11-17T11:59:39.805Z,11.4
2022-11-17T12:02:06.423Z,11.4
2022-11-17T12:04:33.039Z,11.4
2022-11-17T12:09:24.797Z,11.3
2022-11-17T12:11:51.420Z,11.3
2022-11-17T12:14:18.032Z,11.2
2022-11-17T12:16:43.185Z,11.2
2022-11-17T12:19:09.779Z,11.2
2022-11-17T12:24:03.035Z,11.2
2022-11-17T12:26:29.670Z,11.2
2022-11-17T12:31:22.906Z,11.2
2022-11-17T12:33:49.522Z,11.2
2022-11-17T12:36:16.150Z,11.2
2022-11-17T12:38:42.753Z,11.2
2022-11-17T12:41:09.398Z,11.2
2022-11-17T12:43:36.010Z,11.2
2022-11-17T12:48:29.259Z,11.2
2022-11-17T12:53:22.518Z,11.2
2022-11-17T12:55:49.128Z,11.2
2022-11-17T13:00:40.867Z,11.2
2022-11-17T13:05:34.125Z,11.2
2022-11-17T13:08:00.758Z,11.2
2022-11-17T13:12:53.991Z,11.2
2022-11-17T13:15:20.614Z,11.2
2022-11-17T13:17:47.439Z,11.2
2022-11-17T13:20:14.027Z,11.2
2022-11-17T13:22:40.481Z,11.2
2022-11-17T13:25:07.283Z,11.2
2022-11-17T13:27:33.881Z,11.2
2022-11-17T13:29:59.046Z,11.2
2022-11-17T13:32:25.472Z,11.2
2022-11-17T13:37:18.891Z,11.2
2022-11-17T13:39:45.509Z,11.2
2022-11-17T13:42:12.124Z,11.2
2022-11-17T13:44:38.622Z,11.2
2022-11-17T13:47:05.343Z,11.2
2022-11-17T13:49:31.831Z,11.2
2022-11-17T13:51:58.456Z,11.2
2022-11-17T13:54:25.081Z,11.2
2022-11-17T13:56:51.688Z,11.2
2022-11-17T13:59:18.375Z,11.2
2022-11-17T14:01:44.945Z,11.2
2022-11-17T14:04:11.574Z,11.2
2022-11-17T14:06:38.203Z,11.2
2022-11-17T14:09:04.859Z,11.2
2022-11-17T14:13:56.621Z,11.2
2022-11-17T14:16:23.250Z,11.2
2022-11-17T14:18:49.870Z,11.2
2022-11-17T14:21:16.441Z,11.2
2022-11-17T14:23:41.571Z,11.2
2022-11-17T14:26:08.266Z,11.2
2022-11-17T14:28:33.425Z,11.2
2022-11-17T14:31:00.046Z,11.2
2022-11-17T14:35:51.919Z,11.2
2022-11-17T14:38:18.531Z,11.2
2022-11-17T14:40:45.096Z,11.2
2022-11-17T14:45:38.359Z,11.2
2022-11-17T14:48:04.871Z,11.2
2022-11-17T14:50:31.422Z,11.2
2022-11-17T14:52:58.068Z,11.2
2022-11-17T14:55:24.676Z,11.2
2022-11-17T14:57:51.449Z,11.2
2022-11-17T15:00:18.124Z,11.2
2022-11-17T15:02:43.199Z,11.2
2022-11-17T15:07:35.034Z,11.2
2022-11-17T15:12:28.238Z,11.2
2022-11-17T15:14:54.860Z,11.2
2022-11-17T15:17:21.468Z,11.2
2022-11-17T15:19:48.065Z,11.2
2022-11-17T15:22:14.603Z,11.2
2022-11-17T15:24:41.149Z,11.2
2022-11-17T15:27:07.858Z,11.2
2022-11-17T15:32:01.138Z,11.2
2022-11-17T15:34:27.653Z,11.2
2022-11-17T15:36:52.778Z,11.2
2022-11-17T15:39:19.546Z,11.2
2022-11-17T15:41:46.141Z,11.3
2022-11-17T15:44:12.652Z,11.2
2022-11-17T15:46:39.358Z,11.3
2022-11-17T15:49:05.959Z,11.2
2022-11-17T15:51:32.528Z,11.3
2022-11-17T15:53:59.198Z,11.3
2022-11-17T15:56:25.823Z,11.3
2022-11-17T15:58:52.367Z,11.3
2022-11-17T16:01:19.016Z,11.3
2022-11-17T16:06:10.983Z,11.2
2022-11-17T16:08:36.032Z,11.2
2022-11-17T16:11:02.671Z,11.3
2022-11-17T16:13:29.289Z,11.3
2022-11-17T16:20:48.991Z,11.3
2022-11-17T16:23:15.697Z,11.3
2022-11-17T16:25:42.353Z,11.3
2022-11-17T16:33:02.107Z,11.2
2022-11-17T16:35:28.844Z,11.3
2022-11-17T16:37:55.352Z,11.3
2022-11-17T16:40:20.475Z,11.3
2022-11-17T16:47:40.371Z,11.3
2022-11-17T16:50:07.015Z,11.3
2022-11-17T16:52:33.616Z,11.3
2022-11-17T16:55:00.293Z,11.3
2022-11-17T16:57:26.847Z,11.3
2022-11-17T17:02:20.095Z,11.3
2022-11-17T17:04:46.751Z,11.3
2022-11-17T17:09:40.087Z,11.3
2022-11-17T17:19:24.948Z,11.5
2022-11-17T17:26:44.819Z,11.6
2022-11-17T17:29:11.439Z,11.7
2022-11-17T17:34:04.754Z,11.7
2022-11-17T17:36:31.330Z,11.8
2022-11-17T17:41:24.565Z,11.9
2022-11-17T17:43:49.691Z,11.9
2022-11-17T17:46:16.308Z,11.9
2022-11-17T17:48:41.447Z,11.9
2022-11-17T17:51:08.085Z,11.9
2022-11-17T17:53:34.705Z,11.9
2022-11-17T17:56:01.314Z,12
2022-11-17T18:03:21.234Z,12.1
2022-11-17T18:05:47.802Z,12.1
2022-11-17T18:08:14.443Z,12.1
2022-11-17T18:10:41.054Z,12.1
2022-11-17T18:13:07.684Z,12.1
2022-11-17T18:15:34.309Z,12.2
2022-11-17T18:18:00.988Z,12.2
2022-11-17T18:22:52.755Z,12.2
2022-11-17T18:30:12.554Z,12.3
2022-11-17T18:32:39.175Z,12.2
2022-11-17T18:35:05.798Z,12.3
2022-11-17T18:37:32.424Z,12.3
2022-11-17T18:39:59.043Z,12.3
2022-11-17T18:42:25.677Z,12.3
2022-11-17T18:47:19.046Z,12.3
2022-11-17T18:49:45.557Z,12.3
2022-11-17T18:52:12.236Z,12.3
2022-11-17T18:54:37.388Z,12.2
2022-11-17T18:59:30.538Z,12.3
2022-11-17T19:01:57.284Z,12.3
2022-11-17T19:04:23.775Z,12.2
2022-11-17T19:11:43.724Z,12.3
2022-11-17T19:16:36.967Z,12.2
2022-11-17T19:19:03.624Z,12.2
2022-11-17T19:21:30.199Z,12.2
2022-11-17T19:23:56.807Z,12.2
2022-11-17T19:26:21.914Z,12.2
2022-11-17T19:28:48.535Z,12.2
2022-11-17T19:33:41.785Z,12.1
2022-11-17T19:43:28.266Z,12.1
2022-11-17T19:45:54.965Z,12.1
2022-11-17T19:48:21.597Z,12.1
2022-11-17T19:50:48.122Z,12.1
2022-11-17T19:53:14.811Z,12
2022-11-17T19:58:08.003Z,12
2022-11-17T20:00:33.184Z,12
2022-11-17T20:02:59.748Z,12
2022-11-17T20:05:26.376Z,12
2022-11-17T20:07:53.054Z,12
2022-11-17T20:10:19.622Z,12
2022-11-17T20:12:46.296Z,12
2022-11-17T20:17:39.487Z,11.9
2022-11-17T20:20:06.100Z,11.9
2022-11-17T20:29:52.603Z,11.9
2022-11-17T20:44:30.868Z,11.9
2022-11-17T20:46:57.497Z,11.9
2022-11-17T20:51:50.729Z,11.9
2022-11-17T20:56:43.970Z,11.9
2022-11-17T20:59:10.692Z,11.9
2022-11-17T21:13:50.465Z,11.9
2022-11-17T21:28:28.659Z,11.9
2022-11-17T21:43:08.326Z,11.9
2022-11-17T21:57:48.051Z,11.8
2022-11-17T22:09:59.702Z,11.8
2022-11-17T22:12:26.403Z,11.8
2022-11-17T22:14:52.907Z,11.8
2022-11-17T22:27:06.081Z,11.8
2022-11-17T22:34:25.997Z,11.8
2022-11-17T22:41:45.776Z,11.8
2022-11-17T22:44:10.897Z,11.8
2022-11-17T22:56:24.017Z,11.8
2022-11-17T23:03:43.898Z,11.8
2022-11-17T23:06:10.511Z,11.8
2022-11-17T23:08:37.149Z,11.8
2022-11-17T23:11:03.752Z,11.7
2022-11-17T23:13:30.370Z,11.8
2022-11-17T23:18:22.157Z,11.8
2022-11-17T23:23:15.375Z,11.7
2022-11-17T23:25:41.997Z,11.7
2022-11-17T23:28:08.609Z,11.7
2022-11-17T23:30:35.233Z,11.7
2022-11-17T23:33:01.882Z,11.7
2022-11-17T23:35:28.503Z,11.7
2022-11-17T23:40:21.731Z,11.7
2022-11-17T23:42:48.373Z,11.7
2022-11-17T23:45:14.979Z,11.7
2022-11-17T23:47:40.101Z,11.7
2022-11-17T23:52:33.349Z,11.7
2022-11-17T23:54:59.971Z,11.7
2022-11-17T23:57:26.596Z,11.7
2022-11-17T23:59:53.220Z,11.7
